sensor_id;sensor_type;location;lat;lon;timestamp;temperature;humidity
4056;DHT22;2043;52.184;8.690;2023-04-29T00:01:19;11.90;99.90
4056;DHT22;2043;52.184;8.690;2023-04-29T00:03:46;11.90;99.90
4056;DHT22;2043;52.184;8.690;2023-04-29T00:06:13;11.90;99.90
4056;DHT22;2043;52.184;8.690;2023-04-29T00:08:41;11.90;99.90
4056;DHT22;2043;52.184;8.690;2023-04-29T00:11:07;11.90;99.90
4056;DHT22;2043;52.184;8.690;2023-04-29T00:13:34;11.90;99.90
4056;DHT22;2043;52.184;8.690;2023-04-29T00:16:03;11.90;99.90
4056;DHT22;2043;52.184;8.690;2023-04-29T00:18:31;11.90;99.90
4056;DHT22;2043;52.184;8.690;2023-04-29T00:20:57;11.80;99.90
4056;DHT22;2043;52.184;8.690;2023-04-29T00:23:24;11.80;99.90
4056;DHT22;2043;52.184;8.690;2023-04-29T00:25:51;11.90;99.90
4056;DHT22;2043;52.184;8.690;2023-04-29T00:28:19;11.80;99.90
4056;DHT22;2043;52.184;8.690;2023-04-29T00:30:46;11.80;99.90
4056;DHT22;2043;52.184;8.690;2023-04-29T00:33:12;11.80;99.90
4056;DHT22;2043;52.184;8.690;2023-04-29T00:35:39;11.80;99.90
4056;DHT22;2043;52.184;8.690;2023-04-29T00:38:06;11.80;99.90
4056;DHT22;2043;52.184;8.690;2023-04-29T00:40:33;11.80;99.90
4056;DHT22;2043;52.184;8.690;2023-04-29T00:43:01;11.80;99.90
4056;DHT22;2043;52.184;8.690;2023-04-29T00:45:28;11.80;99.90
4056;DHT22;2043;52.184;8.690;2023-04-29T00:47:54;11.80;99.90
4056;DHT22;2043;52.184;8.690;2023-04-29T00:50:21;11.70;99.90
4056;DHT22;2043;52.184;8.690;2023-04-29T00:52:48;11.70;99.90
4056;DHT22;2043;52.184;8.690;2023-04-29T00:55:15;11.70;99.90
4056;DHT22;2043;52.184;8.690;2023-04-29T00:57:42;11.70;99.90
4056;DHT22;2043;52.184;8.690;2023-04-29T01:00:09;11.60;99.90
4056;DHT22;2043;52.184;8.690;2023-04-29T01:02:36;11.60;99.90
4056;DHT22;2043;52.184;8.690;2023-04-29T01:05:04;11.60;99.90
4056;DHT22;2043;52.184;8.690;2023-04-29T01:10:12;11.50;99.90
4056;DHT22;2043;52.184;8.690;2023-04-29T01:13:28;11.50;99.90
4056;DHT22;2043;52.184;8.690;2023-04-29T01:16:03;11.40;99.90
4056;DHT22;2043;52.184;8.690;2023-04-29T01:18:53;11.50;99.90
4056;DHT22;2043;52.184;8.690;2023-04-29T01:21:21;11.40;99.90
4056;DHT22;2043;52.184;8.690;2023-04-29T01:23:48;11.40;99.90
4056;DHT22;2043;52.184;8.690;2023-04-29T01:26:22;11.40;99.90
4056;DHT22;2043;52.184;8.690;2023-04-29T01:29:08;11.40;99.90
4056;DHT22;2043;52.184;8.690;2023-04-29T01:31:47;11.40;99.90
4056;DHT22;2043;52.184;8.690;2023-04-29T01:34:29;11.40;99.90
4056;DHT22;2043;52.184;8.690;2023-04-29T01:40:39;11.30;99.90
4056;DHT22;2043;52.184;8.690;2023-04-29T01:43:10;11.20;99.90
4056;DHT22;2043;52.184;8.690;2023-04-29T01:45:38;11.20;99.90
4056;DHT22;2043;52.184;8.690;2023-04-29T01:48:09;11.20;99.90
4056;DHT22;2043;52.184;8.690;2023-04-29T01:50:36;11.20;99.90
4056;DHT22;2043;52.184;8.690;2023-04-29T01:53:03;11.20;99.90
4056;DHT22;2043;52.184;8.690;2023-04-29T01:55:30;11.20;99.90
4056;DHT22;2043;52.184;8.690;2023-04-29T01:57:57;11.10;99.90
4056;DHT22;2043;52.184;8.690;2023-04-29T02:00:23;11.10;99.90
4056;DHT22;2043;52.184;8.690;2023-04-29T02:02:50;11.10;99.90
4056;DHT22;2043;52.184;8.690;2023-04-29T02:05:17;11.20;99.90
4056;DHT22;2043;52.184;8.690;2023-04-29T02:07:44;11.10;99.90
4056;DHT22;2043;52.184;8.690;2023-04-29T02:10:11;11.10;99.90
4056;DHT22;2043;52.184;8.690;2023-04-29T02:12:38;11.10;99.90
4056;DHT22;2043;52.184;8.690;2023-04-29T02:15:05;11.00;99.90
4056;DHT22;2043;52.184;8.690;2023-04-29T02:17:33;11.00;99.90
4056;DHT22;2043;52.184;8.690;2023-04-29T02:20:00;10.90;99.90
4056;DHT22;2043;52.184;8.690;2023-04-29T02:22:26;11.00;99.90
4056;DHT22;2043;52.184;8.690;2023-04-29T02:24:53;10.90;99.90
4056;DHT22;2043;52.184;8.690;2023-04-29T02:27:20;10.90;99.90
4056;DHT22;2043;52.184;8.690;2023-04-29T02:29:48;10.90;99.90
4056;DHT22;2043;52.184;8.690;2023-04-29T02:32:16;10.90;99.90
4056;DHT22;2043;52.184;8.690;2023-04-29T02:34:45;10.90;99.90
4056;DHT22;2043;52.184;8.690;2023-04-29T02:37:12;10.90;99.90
4056;DHT22;2043;52.184;8.690;2023-04-29T02:39:39;10.90;99.90
4056;DHT22;2043;52.184;8.690;2023-04-29T02:42:06;10.90;99.90
4056;DHT22;2043;52.184;8.690;2023-04-29T02:47:01;10.90;99.90
4056;DHT22;2043;52.184;8.690;2023-04-29T02:51:55;10.90;99.90
4056;DHT22;2043;52.184;8.690;2023-04-29T02:54:21;10.90;99.90
4056;DHT22;2043;52.184;8.690;2023-04-29T02:56:48;10.90;99.90
4056;DHT22;2043;52.184;8.690;2023-04-29T02:59:15;10.90;99.90
4056;DHT22;2043;52.184;8.690;2023-04-29T03:01:42;10.90;99.90
4056;DHT22;2043;52.184;8.690;2023-04-29T03:04:09;10.90;99.90
4056;DHT22;2043;52.184;8.690;2023-04-29T03:09:03;10.90;99.90
4056;DHT22;2043;52.184;8.690;2023-04-29T03:11:30;11.00;99.90
4056;DHT22;2043;52.184;8.690;2023-04-29T03:13:57;11.00;99.90
4056;DHT22;2043;52.184;8.690;2023-04-29T03:16:24;10.90;99.90
4056;DHT22;2043;52.184;8.690;2023-04-29T03:21:18;11.00;99.90
4056;DHT22;2043;52.184;8.690;2023-04-29T03:23:45;10.90;99.90
4056;DHT22;2043;52.184;8.690;2023-04-29T03:26:12;10.90;99.90
4056;DHT22;2043;52.184;8.690;2023-04-29T03:28:38;10.90;99.90
4056;DHT22;2043;52.184;8.690;2023-04-29T03:31:05;10.90;99.90
4056;DHT22;2043;52.184;8.690;2023-04-29T03:33:32;10.80;99.90
4056;DHT22;2043;52.184;8.690;2023-04-29T03:35:59;10.90;99.90
4056;DHT22;2043;52.184;8.690;2023-04-29T03:38:26;10.90;99.90
4056;DHT22;2043;52.184;8.690;2023-04-29T03:40:53;10.80;99.90
4056;DHT22;2043;52.184;8.690;2023-04-29T03:43:19;10.80;99.90
4056;DHT22;2043;52.184;8.690;2023-04-29T03:45:46;10.80;99.90
4056;DHT22;2043;52.184;8.690;2023-04-29T03:48:13;10.80;99.90
4056;DHT22;2043;52.184;8.690;2023-04-29T03:50:40;10.80;99.90
4056;DHT22;2043;52.184;8.690;2023-04-29T03:53:07;10.80;99.90
4056;DHT22;2043;52.184;8.690;2023-04-29T03:55:34;10.70;99.90
4056;DHT22;2043;52.184;8.690;2023-04-29T03:58:00;10.70;99.90
4056;DHT22;2043;52.184;8.690;2023-04-29T04:00:28;10.60;99.90
4056;DHT22;2043;52.184;8.690;2023-04-29T04:02:57;10.70;99.90
4056;DHT22;2043;52.184;8.690;2023-04-29T04:05:24;10.60;99.90
4056;DHT22;2043;52.184;8.690;2023-04-29T04:07:52;10.60;99.90
4056;DHT22;2043;52.184;8.690;2023-04-29T04:10:19;10.50;99.90
4056;DHT22;2043;52.184;8.690;2023-04-29T04:12:46;10.50;99.90
4056;DHT22;2043;52.184;8.690;2023-04-29T04:15:13;10.60;99.90
4056;DHT22;2043;52.184;8.690;2023-04-29T04:17:41;10.60;99.90
4056;DHT22;2043;52.184;8.690;2023-04-29T04:20:08;10.60;99.90
4056;DHT22;2043;52.184;8.690;2023-04-29T04:22:35;10.50;99.90
4056;DHT22;2043;52.184;8.690;2023-04-29T04:25:01;10.50;99.90
4056;DHT22;2043;52.184;8.690;2023-04-29T04:27:28;10.50;99.90
4056;DHT22;2043;52.184;8.690;2023-04-29T04:29:55;10.50;99.90
4056;DHT22;2043;52.184;8.690;2023-04-29T04:32:22;10.50;99.90
4056;DHT22;2043;52.184;8.690;2023-04-29T04:34:49;10.50;99.90
4056;DHT22;2043;52.184;8.690;2023-04-29T04:39:43;10.60;99.90
4056;DHT22;2043;52.184;8.690;2023-04-29T04:42:10;10.60;99.90
4056;DHT22;2043;52.184;8.690;2023-04-29T04:44:37;10.50;99.90
4056;DHT22;2043;52.184;8.690;2023-04-29T04:47:04;10.50;99.90
4056;DHT22;2043;52.184;8.690;2023-04-29T04:49:31;10.50;99.90
4056;DHT22;2043;52.184;8.690;2023-04-29T04:51:58;10.50;99.90
4056;DHT22;2043;52.184;8.690;2023-04-29T04:54:25;10.50;99.90
4056;DHT22;2043;52.184;8.690;2023-04-29T04:56:52;10.50;99.90
4056;DHT22;2043;52.184;8.690;2023-04-29T04:59:19;10.50;99.90
4056;DHT22;2043;52.184;8.690;2023-04-29T05:01:46;10.50;99.90
4056;DHT22;2043;52.184;8.690;2023-04-29T05:04:13;10.50;99.90
4056;DHT22;2043;52.184;8.690;2023-04-29T05:06:41;10.60;99.90
4056;DHT22;2043;52.184;8.690;2023-04-29T05:09:07;10.50;99.90
4056;DHT22;2043;52.184;8.690;2023-04-29T05:11:34;10.50;99.90
4056;DHT22;2043;52.184;8.690;2023-04-29T05:14:01;10.50;99.90
4056;DHT22;2043;52.184;8.690;2023-04-29T05:16:28;10.50;99.90
4056;DHT22;2043;52.184;8.690;2023-04-29T05:18:55;10.50;99.90
4056;DHT22;2043;52.184;8.690;2023-04-29T05:21:22;10.50;99.90
4056;DHT22;2043;52.184;8.690;2023-04-29T05:23:48;10.50;99.90
4056;DHT22;2043;52.184;8.690;2023-04-29T05:26:15;10.50;99.90
4056;DHT22;2043;52.184;8.690;2023-04-29T05:31:09;10.40;99.90
4056;DHT22;2043;52.184;8.690;2023-04-29T05:33:37;10.40;99.90
4056;DHT22;2043;52.184;8.690;2023-04-29T05:36:04;10.50;99.90
4056;DHT22;2043;52.184;8.690;2023-04-29T05:38:32;10.50;99.90
4056;DHT22;2043;52.184;8.690;2023-04-29T05:40:59;10.50;99.90
4056;DHT22;2043;52.184;8.690;2023-04-29T05:43:25;10.50;99.90
4056;DHT22;2043;52.184;8.690;2023-04-29T05:45:53;10.50;99.90
4056;DHT22;2043;52.184;8.690;2023-04-29T05:48:20;10.50;99.90
4056;DHT22;2043;52.184;8.690;2023-04-29T05:50:46;10.50;99.90
4056;DHT22;2043;52.184;8.690;2023-04-29T05:53:14;10.50;99.90
4056;DHT22;2043;52.184;8.690;2023-04-29T05:55:40;10.50;99.90
4056;DHT22;2043;52.184;8.690;2023-04-29T05:58:11;10.50;99.90
4056;DHT22;2043;52.184;8.690;2023-04-29T06:00:38;10.60;99.90
4056;DHT22;2043;52.184;8.690;2023-04-29T06:03:05;10.60;99.90
4056;DHT22;2043;52.184;8.690;2023-04-29T06:05:32;10.60;99.90
4056;DHT22;2043;52.184;8.690;2023-04-29T06:08:00;10.70;99.90
4056;DHT22;2043;52.184;8.690;2023-04-29T06:10:27;10.60;99.90
4056;DHT22;2043;52.184;8.690;2023-04-29T06:12:54;10.70;99.90
4056;DHT22;2043;52.184;8.690;2023-04-29T06:15:21;10.70;99.90
4056;DHT22;2043;52.184;8.690;2023-04-29T06:17:48;10.70;99.90
4056;DHT22;2043;52.184;8.690;2023-04-29T06:20:15;10.70;99.90
4056;DHT22;2043;52.184;8.690;2023-04-29T06:22:43;10.70;99.90
4056;DHT22;2043;52.184;8.690;2023-04-29T06:25:10;10.80;99.90
4056;DHT22;2043;52.184;8.690;2023-04-29T06:27:37;10.80;99.90
4056;DHT22;2043;52.184;8.690;2023-04-29T06:30:04;10.80;99.90
4056;DHT22;2043;52.184;8.690;2023-04-29T06:32:31;10.80;99.90
4056;DHT22;2043;52.184;8.690;2023-04-29T06:34:58;10.70;99.90
4056;DHT22;2043;52.184;8.690;2023-04-29T06:37:25;10.70;99.90
4056;DHT22;2043;52.184;8.690;2023-04-29T06:39:52;10.70;99.90
4056;DHT22;2043;52.184;8.690;2023-04-29T06:42:19;10.70;99.90
4056;DHT22;2043;52.184;8.690;2023-04-29T06:44:46;10.70;99.90
4056;DHT22;2043;52.184;8.690;2023-04-29T06:47:13;10.80;99.90
4056;DHT22;2043;52.184;8.690;2023-04-29T06:49:40;10.80;99.90
4056;DHT22;2043;52.184;8.690;2023-04-29T06:52:09;10.70;99.90
4056;DHT22;2043;52.184;8.690;2023-04-29T06:54:36;10.50;99.90
4056;DHT22;2043;52.184;8.690;2023-04-29T06:57:03;10.60;99.90
4056;DHT22;2043;52.184;8.690;2023-04-29T06:59:30;10.60;99.90
4056;DHT22;2043;52.184;8.690;2023-04-29T07:01:58;10.60;99.90
4056;DHT22;2043;52.184;8.690;2023-04-29T07:04:25;10.70;99.90
4056;DHT22;2043;52.184;8.690;2023-04-29T07:06:51;10.70;99.90
4056;DHT22;2043;52.184;8.690;2023-04-29T07:09:19;10.70;99.90
4056;DHT22;2043;52.184;8.690;2023-04-29T07:11:46;10.70;99.90
4056;DHT22;2043;52.184;8.690;2023-04-29T07:14:13;10.80;99.90
4056;DHT22;2043;52.184;8.690;2023-04-29T07:16:39;10.80;99.90
4056;DHT22;2043;52.184;8.690;2023-04-29T07:19:06;10.70;99.90
4056;DHT22;2043;52.184;8.690;2023-04-29T07:21:33;10.50;99.90
4056;DHT22;2043;52.184;8.690;2023-04-29T07:24:01;10.50;99.90
4056;DHT22;2043;52.184;8.690;2023-04-29T07:26:30;10.50;99.90
4056;DHT22;2043;52.184;8.690;2023-04-29T07:28:57;10.60;99.90
4056;DHT22;2043;52.184;8.690;2023-04-29T07:31:24;10.60;99.90
4056;DHT22;2043;52.184;8.690;2023-04-29T07:33:51;10.60;99.90
4056;DHT22;2043;52.184;8.690;2023-04-29T07:36:18;10.70;99.90
4056;DHT22;2043;52.184;8.690;2023-04-29T07:41:14;10.90;99.90
4056;DHT22;2043;52.184;8.690;2023-04-29T07:43:41;10.80;99.90
4056;DHT22;2043;52.184;8.690;2023-04-29T07:46:08;10.90;99.90
4056;DHT22;2043;52.184;8.690;2023-04-29T07:48:36;11.10;99.90
4056;DHT22;2043;52.184;8.690;2023-04-29T07:51:04;11.10;99.90
4056;DHT22;2043;52.184;8.690;2023-04-29T07:53:31;11.20;99.90
4056;DHT22;2043;52.184;8.690;2023-04-29T07:55:58;11.20;99.90
4056;DHT22;2043;52.184;8.690;2023-04-29T07:58:27;11.20;99.90
4056;DHT22;2043;52.184;8.690;2023-04-29T08:00:54;11.10;99.90
4056;DHT22;2043;52.184;8.690;2023-04-29T08:03:20;11.10;99.90
4056;DHT22;2043;52.184;8.690;2023-04-29T08:05:47;11.20;99.90
4056;DHT22;2043;52.184;8.690;2023-04-29T08:08:16;11.20;99.90
4056;DHT22;2043;52.184;8.690;2023-04-29T08:10:43;11.30;99.90
4056;DHT22;2043;52.184;8.690;2023-04-29T08:13:10;11.30;99.90
4056;DHT22;2043;52.184;8.690;2023-04-29T08:15:37;11.50;99.90
4056;DHT22;2043;52.184;8.690;2023-04-29T08:18:04;11.60;99.90
4056;DHT22;2043;52.184;8.690;2023-04-29T08:20:31;11.70;99.90
4056;DHT22;2043;52.184;8.690;2023-04-29T08:22:58;11.80;99.90
4056;DHT22;2043;52.184;8.690;2023-04-29T08:25:26;11.90;99.90
4056;DHT22;2043;52.184;8.690;2023-04-29T08:27:53;12.00;99.90
4056;DHT22;2043;52.184;8.690;2023-04-29T08:32:47;12.00;99.90
4056;DHT22;2043;52.184;8.690;2023-04-29T08:35:14;12.10;99.90
4056;DHT22;2043;52.184;8.690;2023-04-29T08:37:41;12.20;99.90
4056;DHT22;2043;52.184;8.690;2023-04-29T08:40:08;12.20;99.90
4056;DHT22;2043;52.184;8.690;2023-04-29T08:42:36;12.20;99.90
4056;DHT22;2043;52.184;8.690;2023-04-29T08:45:03;12.30;99.90
4056;DHT22;2043;52.184;8.690;2023-04-29T08:47:32;12.40;99.90
4056;DHT22;2043;52.184;8.690;2023-04-29T08:50:03;12.40;99.90
4056;DHT22;2043;52.184;8.690;2023-04-29T08:52:31;12.40;99.90
4056;DHT22;2043;52.184;8.690;2023-04-29T08:54:59;12.60;99.90
4056;DHT22;2043;52.184;8.690;2023-04-29T08:57:29;12.60;99.90
4056;DHT22;2043;52.184;8.690;2023-04-29T08:59:58;12.50;99.90
4056;DHT22;2043;52.184;8.690;2023-04-29T09:02:27;12.40;99.90
4056;DHT22;2043;52.184;8.690;2023-04-29T09:04:59;12.50;99.90
4056;DHT22;2043;52.184;8.690;2023-04-29T09:07:30;12.70;99.90
4056;DHT22;2043;52.184;8.690;2023-04-29T09:09:58;13.00;99.90
4056;DHT22;2043;52.184;8.690;2023-04-29T09:12:25;13.30;99.40
4056;DHT22;2043;52.184;8.690;2023-04-29T09:14:52;13.50;98.20
4056;DHT22;2043;52.184;8.690;2023-04-29T09:17:46;13.70;99.10
4056;DHT22;2043;52.184;8.690;2023-04-29T09:22:51;13.50;98.30
4056;DHT22;2043;52.184;8.690;2023-04-29T09:25:18;13.50;98.20
4056;DHT22;2043;52.184;8.690;2023-04-29T09:27:46;13.70;98.60
4056;DHT22;2043;52.184;8.690;2023-04-29T09:30:13;13.80;96.60
4056;DHT22;2043;52.184;8.690;2023-04-29T09:32:42;13.60;97.00
4056;DHT22;2043;52.184;8.690;2023-04-29T09:35:24;13.50;97.10
4056;DHT22;2043;52.184;8.690;2023-04-29T09:37:51;13.50;98.10
4056;DHT22;2043;52.184;8.690;2023-04-29T09:40:32;13.70;98.20
4056;DHT22;2043;52.184;8.690;2023-04-29T09:43:16;13.90;97.70
4056;DHT22;2043;52.184;8.690;2023-04-29T09:45:47;13.70;97.30
4056;DHT22;2043;52.184;8.690;2023-04-29T09:48:15;13.90;97.00
4056;DHT22;2043;52.184;8.690;2023-04-29T09:50:43;14.10;95.20
4056;DHT22;2043;52.184;8.690;2023-04-29T09:53:10;14.20;95.30
4056;DHT22;2043;52.184;8.690;2023-04-29T09:55:58;14.20;95.20
4056;DHT22;2043;52.184;8.690;2023-04-29T09:58:30;14.40;95.40
4056;DHT22;2043;52.184;8.690;2023-04-29T10:01:03;14.60;93.30
4056;DHT22;2043;52.184;8.690;2023-04-29T10:03:33;14.30;93.90
4056;DHT22;2043;52.184;8.690;2023-04-29T10:06:01;14.20;94.30
4056;DHT22;2043;52.184;8.690;2023-04-29T10:08:29;14.30;95.00
4056;DHT22;2043;52.184;8.690;2023-04-29T10:11:03;14.10;93.30
4056;DHT22;2043;52.184;8.690;2023-04-29T10:13:34;14.10;93.30
4056;DHT22;2043;52.184;8.690;2023-04-29T10:16:14;13.80;94.50
4056;DHT22;2043;52.184;8.690;2023-04-29T10:18:51;13.80;95.10
4056;DHT22;2043;52.184;8.690;2023-04-29T10:21:24;13.70;95.40
4056;DHT22;2043;52.184;8.690;2023-04-29T10:23:53;13.70;95.00
4056;DHT22;2043;52.184;8.690;2023-04-29T10:26:26;13.80;95.00
4056;DHT22;2043;52.184;8.690;2023-04-29T10:28:55;13.80;94.30
4056;DHT22;2043;52.184;8.690;2023-04-29T10:31:25;14.00;95.20
4056;DHT22;2043;52.184;8.690;2023-04-29T10:33:56;14.10;94.10
4056;DHT22;2043;52.184;8.690;2023-04-29T10:36:27;14.10;93.80
4056;DHT22;2043;52.184;8.690;2023-04-29T10:39:02;14.10;93.20
4056;DHT22;2043;52.184;8.690;2023-04-29T10:41:35;14.20;93.60
4056;DHT22;2043;52.184;8.690;2023-04-29T10:44:02;14.20;93.60
4056;DHT22;2043;52.184;8.690;2023-04-29T10:46:30;14.40;93.40
4056;DHT22;2043;52.184;8.690;2023-04-29T10:49:01;14.50;92.70
4056;DHT22;2043;52.184;8.690;2023-04-29T10:51:47;14.50;92.20
4056;DHT22;2043;52.184;8.690;2023-04-29T10:54:16;14.50;92.80
4056;DHT22;2043;52.184;8.690;2023-04-29T10:56:46;14.50;92.90
4056;DHT22;2043;52.184;8.690;2023-04-29T10:59:18;14.40;92.40
4056;DHT22;2043;52.184;8.690;2023-04-29T11:01:47;14.20;92.70
4056;DHT22;2043;52.184;8.690;2023-04-29T11:04:15;14.20;92.70
4056;DHT22;2043;52.184;8.690;2023-04-29T11:06:55;14.10;93.30
4056;DHT22;2043;52.184;8.690;2023-04-29T11:12:01;14.00;93.80
4056;DHT22;2043;52.184;8.690;2023-04-29T11:17:15;13.70;93.20
4056;DHT22;2043;52.184;8.690;2023-04-29T11:19:46;13.60;94.30
4056;DHT22;2043;52.184;8.690;2023-04-29T11:25:06;13.90;94.40
4056;DHT22;2043;52.184;8.690;2023-04-29T11:27:39;14.00;94.60
4056;DHT22;2043;52.184;8.690;2023-04-29T11:30:08;14.20;94.00
4056;DHT22;2043;52.184;8.690;2023-04-29T11:32:36;14.40;93.60
4056;DHT22;2043;52.184;8.690;2023-04-29T11:35:14;14.50;92.50
4056;DHT22;2043;52.184;8.690;2023-04-29T11:37:42;14.80;92.90
4056;DHT22;2043;52.184;8.690;2023-04-29T11:40:11;15.10;91.60
4056;DHT22;2043;52.184;8.690;2023-04-29T11:42:46;15.40;90.00
4056;DHT22;2043;52.184;8.690;2023-04-29T11:45:16;15.40;89.60
4056;DHT22;2043;52.184;8.690;2023-04-29T11:47:45;15.40;89.60
4056;DHT22;2043;52.184;8.690;2023-04-29T11:50:13;15.10;88.10
4056;DHT22;2043;52.184;8.690;2023-04-29T11:52:42;15.00;88.50
4056;DHT22;2043;52.184;8.690;2023-04-29T11:55:11;14.70;89.50
4056;DHT22;2043;52.184;8.690;2023-04-29T11:57:38;14.60;90.80
4056;DHT22;2043;52.184;8.690;2023-04-29T12:00:09;14.60;90.60
4056;DHT22;2043;52.184;8.690;2023-04-29T12:02:44;14.60;90.00
4056;DHT22;2043;52.184;8.690;2023-04-29T12:05:12;14.70;89.70
4056;DHT22;2043;52.184;8.690;2023-04-29T12:07:39;14.50;90.30
4056;DHT22;2043;52.184;8.690;2023-04-29T12:10:08;14.50;90.20
4056;DHT22;2043;52.184;8.690;2023-04-29T12:12:37;14.40;91.30
4056;DHT22;2043;52.184;8.690;2023-04-29T12:15:07;14.40;91.60
4056;DHT22;2043;52.184;8.690;2023-04-29T12:17:36;14.50;90.90
4056;DHT22;2043;52.184;8.690;2023-04-29T12:20:04;14.50;89.90
4056;DHT22;2043;52.184;8.690;2023-04-29T12:22:32;14.60;90.70
4056;DHT22;2043;52.184;8.690;2023-04-29T12:24:58;14.60;89.80
4056;DHT22;2043;52.184;8.690;2023-04-29T12:27:25;14.60;90.00
4056;DHT22;2043;52.184;8.690;2023-04-29T12:29:52;14.70;90.20
4056;DHT22;2043;52.184;8.690;2023-04-29T12:32:23;14.80;90.50
4056;DHT22;2043;52.184;8.690;2023-04-29T12:34:51;14.80;89.70
4056;DHT22;2043;52.184;8.690;2023-04-29T12:37:20;14.90;90.10
4056;DHT22;2043;52.184;8.690;2023-04-29T12:39:49;14.90;90.90
4056;DHT22;2043;52.184;8.690;2023-04-29T12:42:16;15.00;90.80
4056;DHT22;2043;52.184;8.690;2023-04-29T12:44:47;15.00;91.00
4056;DHT22;2043;52.184;8.690;2023-04-29T12:47:15;14.80;90.70
4056;DHT22;2043;52.184;8.690;2023-04-29T12:49:44;14.80;90.60
4056;DHT22;2043;52.184;8.690;2023-04-29T12:52:11;14.90;89.00
4056;DHT22;2043;52.184;8.690;2023-04-29T12:54:39;14.80;89.10
4056;DHT22;2043;52.184;8.690;2023-04-29T12:57:10;14.70;89.30
4056;DHT22;2043;52.184;8.690;2023-04-29T12:59:38;14.70;89.50
4056;DHT22;2043;52.184;8.690;2023-04-29T13:02:07;14.70;89.10
4056;DHT22;2043;52.184;8.690;2023-04-29T13:04:33;14.70;89.60
4056;DHT22;2043;52.184;8.690;2023-04-29T13:07:01;14.60;89.30
4056;DHT22;2043;52.184;8.690;2023-04-29T13:09:29;14.60;89.30
4056;DHT22;2043;52.184;8.690;2023-04-29T13:11:57;14.60;89.60
4056;DHT22;2043;52.184;8.690;2023-04-29T13:14:25;14.60;89.90
4056;DHT22;2043;52.184;8.690;2023-04-29T13:16:52;14.60;90.10
4056;DHT22;2043;52.184;8.690;2023-04-29T13:22:05;14.60;88.90
4056;DHT22;2043;52.184;8.690;2023-04-29T13:24:32;14.60;88.50
4056;DHT22;2043;52.184;8.690;2023-04-29T13:27:01;14.70;87.90
4056;DHT22;2043;52.184;8.690;2023-04-29T13:29:31;14.70;86.60
4056;DHT22;2043;52.184;8.690;2023-04-29T13:31:58;14.80;86.30
4056;DHT22;2043;52.184;8.690;2023-04-29T13:34:25;14.80;87.80
4056;DHT22;2043;52.184;8.690;2023-04-29T13:36:52;14.70;87.50
4056;DHT22;2043;52.184;8.690;2023-04-29T13:39:18;14.70;89.20
4056;DHT22;2043;52.184;8.690;2023-04-29T13:41:48;14.80;88.00
4056;DHT22;2043;52.184;8.690;2023-04-29T13:44:15;15.00;88.10
4056;DHT22;2043;52.184;8.690;2023-04-29T13:46:58;15.10;87.40
4056;DHT22;2043;52.184;8.690;2023-04-29T13:49:27;15.10;88.40
4056;DHT22;2043;52.184;8.690;2023-04-29T13:52:14;15.20;88.20
4056;DHT22;2043;52.184;8.690;2023-04-29T13:57:31;15.20;87.50
4056;DHT22;2043;52.184;8.690;2023-04-29T14:00:02;15.20;86.80
4056;DHT22;2043;52.184;8.690;2023-04-29T14:02:49;15.20;86.60
4056;DHT22;2043;52.184;8.690;2023-04-29T14:05:19;15.10;87.10
4056;DHT22;2043;52.184;8.690;2023-04-29T14:07:46;15.00;87.30
4056;DHT22;2043;52.184;8.690;2023-04-29T14:10:13;14.90;86.90
4056;DHT22;2043;52.184;8.690;2023-04-29T14:12:40;14.80;86.90
4056;DHT22;2043;52.184;8.690;2023-04-29T14:15:07;14.80;87.30
4056;DHT22;2043;52.184;8.690;2023-04-29T14:17:33;14.70;86.70
4056;DHT22;2043;52.184;8.690;2023-04-29T14:20:02;14.70;86.30
4056;DHT22;2043;52.184;8.690;2023-04-29T14:22:29;14.80;85.70
4056;DHT22;2043;52.184;8.690;2023-04-29T14:24:56;14.80;85.70
4056;DHT22;2043;52.184;8.690;2023-04-29T14:27:23;15.40;85.40
4056;DHT22;2043;52.184;8.690;2023-04-29T14:29:50;15.50;85.50
4056;DHT22;2043;52.184;8.690;2023-04-29T14:32:16;16.00;84.70
4056;DHT22;2043;52.184;8.690;2023-04-29T14:34:43;16.10;83.80
4056;DHT22;2043;52.184;8.690;2023-04-29T14:37:10;16.20;84.30
4056;DHT22;2043;52.184;8.690;2023-04-29T14:39:37;16.30;83.20
4056;DHT22;2043;52.184;8.690;2023-04-29T14:42:04;16.40;83.80
4056;DHT22;2043;52.184;8.690;2023-04-29T14:44:31;16.20;83.40
4056;DHT22;2043;52.184;8.690;2023-04-29T14:46:58;16.00;85.00
4056;DHT22;2043;52.184;8.690;2023-04-29T14:49:26;16.00;83.80
4056;DHT22;2043;52.184;8.690;2023-04-29T14:51:55;16.00;84.30
4056;DHT22;2043;52.184;8.690;2023-04-29T14:54:22;16.00;82.60
4056;DHT22;2043;52.184;8.690;2023-04-29T14:56:50;16.00;80.40
4056;DHT22;2043;52.184;8.690;2023-04-29T14:59:16;15.90;82.20
4056;DHT22;2043;52.184;8.690;2023-04-29T15:01:43;16.20;82.10
4056;DHT22;2043;52.184;8.690;2023-04-29T15:04:11;16.50;81.70
4056;DHT22;2043;52.184;8.690;2023-04-29T15:06:39;16.50;79.90
4056;DHT22;2043;52.184;8.690;2023-04-29T15:09:06;16.30;80.40
4056;DHT22;2043;52.184;8.690;2023-04-29T15:11:33;16.30;80.50
4056;DHT22;2043;52.184;8.690;2023-04-29T15:14:00;15.80;81.10
4056;DHT22;2043;52.184;8.690;2023-04-29T15:16:27;15.50;81.90
4056;DHT22;2043;52.184;8.690;2023-04-29T15:21:22;15.30;83.60
4056;DHT22;2043;52.184;8.690;2023-04-29T15:23:48;15.20;84.30
4056;DHT22;2043;52.184;8.690;2023-04-29T15:26:15;15.30;84.00
4056;DHT22;2043;52.184;8.690;2023-04-29T15:28:42;15.20;84.00
4056;DHT22;2043;52.184;8.690;2023-04-29T15:31:11;15.10;85.10
4056;DHT22;2043;52.184;8.690;2023-04-29T15:33:38;15.10;84.90
4056;DHT22;2043;52.184;8.690;2023-04-29T15:36:06;15.20;84.60
4056;DHT22;2043;52.184;8.690;2023-04-29T15:38:32;15.00;84.10
4056;DHT22;2043;52.184;8.690;2023-04-29T15:40:59;15.00;84.40
4056;DHT22;2043;52.184;8.690;2023-04-29T15:43:27;14.90;85.00
4056;DHT22;2043;52.184;8.690;2023-04-29T15:45:54;14.90;84.80
4056;DHT22;2043;52.184;8.690;2023-04-29T15:48:21;14.80;84.50
4056;DHT22;2043;52.184;8.690;2023-04-29T15:50:48;14.80;84.40
4056;DHT22;2043;52.184;8.690;2023-04-29T15:53:15;14.80;85.40
4056;DHT22;2043;52.184;8.690;2023-04-29T15:55:42;14.90;85.60
4056;DHT22;2043;52.184;8.690;2023-04-29T15:58:09;14.80;85.30
4056;DHT22;2043;52.184;8.690;2023-04-29T16:00:35;14.70;85.50
4056;DHT22;2043;52.184;8.690;2023-04-29T16:03:02;14.80;86.10
4056;DHT22;2043;52.184;8.690;2023-04-29T16:05:29;14.80;85.80
4056;DHT22;2043;52.184;8.690;2023-04-29T16:07:57;14.70;86.20
4056;DHT22;2043;52.184;8.690;2023-04-29T16:10:23;14.70;86.40
4056;DHT22;2043;52.184;8.690;2023-04-29T16:12:50;14.60;86.60
4056;DHT22;2043;52.184;8.690;2023-04-29T16:15:17;14.60;85.60
4056;DHT22;2043;52.184;8.690;2023-04-29T16:17:44;14.60;86.00
4056;DHT22;2043;52.184;8.690;2023-04-29T16:20:11;14.60;85.70
4056;DHT22;2043;52.184;8.690;2023-04-29T16:22:38;14.50;85.70
4056;DHT22;2043;52.184;8.690;2023-04-29T16:25:05;14.50;85.70
4056;DHT22;2043;52.184;8.690;2023-04-29T16:27:32;14.40;86.30
4056;DHT22;2043;52.184;8.690;2023-04-29T16:29:59;14.50;86.80
4056;DHT22;2043;52.184;8.690;2023-04-29T16:32:26;14.40;86.30
4056;DHT22;2043;52.184;8.690;2023-04-29T16:34:54;14.40;85.90
4056;DHT22;2043;52.184;8.690;2023-04-29T16:37:21;14.40;86.50
4056;DHT22;2043;52.184;8.690;2023-04-29T16:39:48;14.40;86.20
4056;DHT22;2043;52.184;8.690;2023-04-29T16:42:15;14.30;86.20
4056;DHT22;2043;52.184;8.690;2023-04-29T16:44:42;14.40;86.40
4056;DHT22;2043;52.184;8.690;2023-04-29T16:47:09;14.40;86.60
4056;DHT22;2043;52.184;8.690;2023-04-29T16:49:37;14.50;86.70
4056;DHT22;2043;52.184;8.690;2023-04-29T16:52:04;14.40;87.40
4056;DHT22;2043;52.184;8.690;2023-04-29T16:54:30;14.40;86.60